Ramsau, Austria
Current Conditions -  °F | °C
As of 4:20 AM on Saturday 29 Nov 2014 (Local Time) from LOWS Reporting Station
Broken Clouds Broken Clouds  
Wind Chill: 37°   Ceiling: 400
Heat Index: 37°   Visibility: 6mi
Dew Point: 36°   Wind: 2mph
Humidity: 93%   Direction: 50°NE
Pressure: 29.91"   Gusts: NA
Location:  47.42°N, 13.63°E
Report Text: LOWS 290220Z AUTO 05002KT 9999 BKN004 03/02 Q1013
Loading
Personal Weather Stations






























Interactive Weather Map New forecast layout! Learn more

10-Day Weather Forecast

Advertisements
Track Severe Weather on mobile